Time,TemperatureF,DewpointF,PressureIn,WindDirection,WindDirectionDegrees,WindSpeedMPH,WindSpeedGustMPH,Humidity,HourlyPrecipIn,Conditions,Clouds,dailyrainin,SoftwareType,DateUTC
2011-03-18 00:04:00,47.1,30.3,30.04,NNE,22,0.0,0.9,52,0.00,,,0.00,open2300-1.11,2011-03-18 06:04:00,
2011-03-18 00:15:00,46.6,30.7,30.04,NNE,22,6.5,6.5,54,0.00,,,0.00,open2300-1.11,2011-03-18 06:15:00,
2011-03-18 00:24:00,46.6,31.2,30.04,NE,45,3.1,6.5,55,0.00,,,0.00,open2300-1.11,2011-03-18 06:24:00,
2011-03-18 00:35:00,46.2,30.9,30.05,WNW,292,0.2,4.9,55,0.00,,,0.00,open2300-1.11,2011-03-18 06:35:00,
2011-03-18 00:44:00,46.2,30.9,30.06,ENE,67,1.8,4.0,55,0.00,,,0.00,open2300-1.11,2011-03-18 06:44:00,
2011-03-18 00:54:00,46.0,30.7,30.05,East,90,4.2,4.5,55,0.00,,,0.00,open2300-1.11,2011-03-18 06:54:00,
2011-03-18 01:04:00,46.0,31.1,30.07,NE,45,6.0,6.0,56,0.00,,,0.00,open2300-1.11,2011-03-18 07:04:00,
2011-03-18 01:15:00,45.9,31.0,30.07,WNW,292,1.6,6.0,56,0.00,,,0.00,open2300-1.11,2011-03-18 07:15:00,
2011-03-18 01:24:00,45.7,30.8,30.08,WSW,247,1.1,2.5,56,0.00,,,0.00,open2300-1.11,2011-03-18 07:24:00,
2011-03-18 01:34:00,45.7,31.3,30.08,WNW,292,0.0,4.2,57,0.00,,,0.00,open2300-1.11,2011-03-18 07:34:00,
2011-03-18 01:44:00,45.5,31.5,30.08,East,90,0.0,2.2,58,0.00,,,0.00,open2300-1.11,2011-03-18 07:44:00,
2011-03-18 01:55:00,45.3,31.8,30.08,NNE,22,1.3,3.1,59,0.00,,,0.00,open2300-1.11,2011-03-18 07:55:00,
2011-03-18 02:04:00,45.1,31.7,30.07,WSW,247,0.0,6.3,59,0.00,,,0.00,open2300-1.11,2011-03-18 08:04:00,
2011-03-18 02:14:00,44.8,31.8,30.07,SSE,157,0.0,3.1,60,0.00,,,0.00,open2300-1.11,2011-03-18 08:14:00,
2011-03-18 02:24:00,44.6,32.0,30.07,ESE,112,4.7,4.7,61,0.00,,,0.00,open2300-1.11,2011-03-18 08:24:00,
2011-03-18 02:34:00,44.4,31.8,30.07,SSE,157,0.7,4.7,61,0.00,,,0.00,open2300-1.11,2011-03-18 08:34:00,
2011-03-18 02:45:00,44.2,31.7,30.07,SSE,157,0.0,2.0,61,0.00,,,0.00,open2300-1.11,2011-03-18 08:45:00,
2011-03-18 02:54:00,44.2,31.7,30.06,SSE,157,0.0,0.7,61,0.00,,,0.00,open2300-1.11,2011-03-18 08:54:00,
2011-03-18 03:04:00,44.1,31.9,30.06,SE,135,1.3,2.0,62,0.00,,,0.00,open2300-1.11,2011-03-18 09:04:00,
2011-03-18 03:15:00,43.9,32.1,30.05,ESE,112,0.0,6.5,63,0.00,,,0.00,open2300-1.11,2011-03-18 09:15:00,
2011-03-18 03:24:00,43.7,31.9,30.05,ESE,112,1.1,4.5,63,0.00,,,0.00,open2300-1.11,2011-03-18 09:24:00,
2011-03-18 03:34:00,43.5,31.7,30.04,SE,135,2.2,5.6,63,0.00,,,0.00,open2300-1.11,2011-03-18 09:34:00,
2011-03-18 03:44:00,43.5,31.7,30.04,ESE,112,4.0,5.6,63,0.00,,,0.00,open2300-1.11,2011-03-18 09:44:00,
2011-03-18 03:55:00,43.5,31.7,30.04,East,90,3.6,4.5,63,0.00,,,0.00,open2300-1.11,2011-03-18 09:55:00,
2011-03-18 04:05:00,43.3,31.5,30.04,ESE,112,2.0,3.8,63,0.00,,,0.00,open2300-1.11,2011-03-18 10:05:00,
2011-03-18 04:15:00,43.2,31.4,30.04,ESE,112,2.2,3.8,63,0.00,,,0.00,open2300-1.11,2011-03-18 10:15:00,
2011-03-18 04:25:00,43.0,31.2,30.04,SE,135,6.3,6.3,63,0.00,,,0.00,open2300-1.11,2011-03-18 10:25:00,
2011-03-18 04:35:00,43.0,31.2,30.03,SE,135,1.1,6.3,63,0.00,,,0.00,open2300-1.11,2011-03-18 10:35:00,
2011-03-18 04:45:00,43.0,31.2,30.03,SE,135,1.6,1.8,63,0.00,,,0.00,open2300-1.11,2011-03-18 10:45:00,
2011-03-18 04:55:00,42.6,30.9,30.03,East,90,3.8,3.8,63,0.00,,,0.00,open2300-1.11,2011-03-18 10:55:00,
2011-03-18 05:05:00,42.6,30.9,30.03,East,90,1.8,5.8,63,0.00,,,0.00,open2300-1.11,2011-03-18 11:05:00,
2011-03-18 05:15:00,42.4,31.1,30.03,East,90,0.0,6.3,64,0.00,,,0.00,open2300-1.11,2011-03-18 11:15:00,
2011-03-18 05:25:00,42.1,30.3,30.03,East,90,0.0,0.0,63,0.00,,,0.00,open2300-1.11,2011-03-18 11:25:00,
2011-03-18 05:34:00,41.7,30.0,30.04,East,90,0.7,0.7,63,0.00,,,0.00,open2300-1.11,2011-03-18 11:34:00,
2011-03-18 05:44:00,41.2,29.9,30.03,SSE,157,0.0,0.7,64,0.00,,,0.00,open2300-1.11,2011-03-18 11:44:00,
2011-03-18 05:55:00,40.8,29.5,30.04,East,90,2.2,2.2,64,0.00,,,0.00,open2300-1.11,2011-03-18 11:55:00,
2011-03-18 06:05:00,40.8,29.9,30.04,ESE,112,0.2,6.0,65,0.00,,,0.00,open2300-1.11,2011-03-18 12:05:00,
2011-03-18 06:14:00,40.5,29.2,30.04,SSE,157,0.0,2.0,64,0.00,,,0.00,open2300-1.11,2011-03-18 12:14:00,
2011-03-18 06:24:00,40.3,29.0,30.05,SSE,157,0.0,0.0,64,0.00,,,0.00,open2300-1.11,2011-03-18 12:24:00,
2011-03-18 06:35:00,39.9,29.0,30.05,SE,135,0.0,0.0,65,0.00,,,0.00,open2300-1.11,2011-03-18 12:35:00,
2011-03-18 06:45:00,39.7,28.9,30.05,SE,135,1.1,1.1,65,0.00,,,0.00,open2300-1.11,2011-03-18 12:45:00,
2011-03-18 06:55:00,39.6,28.7,30.06,SSE,157,0.0,1.1,65,0.00,,,0.00,open2300-1.11,2011-03-18 12:55:00,
2011-03-18 07:05:00,39.0,28.1,30.06,SSE,157,0.0,0.0,65,0.00,,,0.00,open2300-1.11,2011-03-18 13:05:00,
2011-03-18 07:15:00,39.0,28.1,30.06,SSE,157,0.0,0.0,65,0.00,,,0.00,open2300-1.11,2011-03-18 13:15:00,
2011-03-18 07:24:00,38.5,27.7,30.06,SSE,157,0.0,0.0,65,0.00,,,0.00,open2300-1.11,2011-03-18 13:24:00,
2011-03-18 07:35:00,38.1,27.3,30.06,SSE,157,0.0,0.0,65,0.00,,,0.00,open2300-1.11,2011-03-18 13:35:00,
2011-03-18 07:45:00,37.9,27.2,30.07,SSE,157,0.0,0.0,65,0.00,,,0.00,open2300-1.11,2011-03-18 13:45:00,
2011-03-18 07:55:00,37.9,27.5,30.07,SSE,157,0.0,0.0,66,0.00,,,0.00,open2300-1.11,2011-03-18 13:55:00,
2011-03-18 08:05:00,37.8,27.4,30.07,SSE,157,0.0,0.0,66,0.00,,,0.00,open2300-1.11,2011-03-18 14:05:00,
2011-03-18 08:15:00,37.4,27.1,30.08,SSE,157,0.0,0.0,66,0.00,,,0.00,open2300-1.11,2011-03-18 14:15:00,
2011-03-18 08:24:00,37.6,27.2,30.08,SSE,157,0.0,0.0,66,0.00,,,0.00,open2300-1.11,2011-03-18 14:24:00,
2011-03-18 08:35:00,37.9,28.3,30.08,ENE,67,0.0,2.5,68,0.00,,,0.00,open2300-1.11,2011-03-18 14:35:00,
2011-03-18 08:45:00,38.8,29.1,30.09,ESE,112,0.0,3.4,68,0.00,,,0.00,open2300-1.11,2011-03-18 14:45:00,
2011-03-18 08:55:00,39.7,30.0,30.09,SE,135,1.3,1.3,68,0.00,,,0.00,open2300-1.11,2011-03-18 14:55:00,
2011-03-18 09:05:00,40.3,30.5,30.09,ESE,112,3.1,3.1,68,0.00,,,0.00,open2300-1.11,2011-03-18 15:05:00,
2011-03-18 09:15:00,41.2,31.4,30.09,SE,135,0.0,3.8,68,0.00,,,0.00,open2300-1.11,2011-03-18 15:15:00,
2011-03-18 09:24:00,42.1,31.9,30.08,SE,135,0.0,3.1,67,0.00,,,0.00,open2300-1.11,2011-03-18 15:24:00,
2011-03-18 09:35:00,43.2,32.5,30.08,ESE,112,0.9,1.6,66,0.00,,,0.00,open2300-1.11,2011-03-18 15:35:00,
2011-03-18 09:45:00,44.2,33.2,30.09,SE,135,1.6,2.5,65,0.00,,,0.00,open2300-1.11,2011-03-18 15:45:00,
2011-03-18 09:55:00,45.1,33.7,30.09,SE,135,0.0,1.6,64,0.00,,,0.00,open2300-1.11,2011-03-18 15:55:00,
2011-03-18 10:05:00,45.7,33.8,30.09,SE,135,0.0,0.0,63,0.00,,,0.00,open2300-1.11,2011-03-18 16:05:00,
2011-03-18 10:15:00,46.8,34.0,30.09,SW,225,0.0,0.0,61,0.00,,,0.00,open2300-1.11,2011-03-18 16:15:00,
2011-03-18 10:25:00,47.7,35.3,30.08,SW,225,0.0,0.0,62,0.00,,,0.00,open2300-1.11,2011-03-18 16:25:00,
2011-03-18 10:35:00,48.4,35.6,30.08,West,270,0.4,0.4,61,0.00,,,0.00,open2300-1.11,2011-03-18 16:35:00,
2011-03-18 10:45:00,49.3,35.6,30.08,West,270,2.9,2.9,59,0.00,,,0.00,open2300-1.11,2011-03-18 16:45:00,
2011-03-18 10:55:00,50.2,35.9,30.08,NNW,337,0.0,4.9,58,0.00,,,0.00,open2300-1.11,2011-03-18 16:55:00,
2011-03-18 11:05:00,51.1,36.3,30.08,West,270,0.0,2.2,57,0.00,,,0.00,open2300-1.11,2011-03-18 17:05:00,
2011-03-18 11:15:00,51.6,36.8,30.08,West,270,1.8,1.8,57,0.00,,,0.00,open2300-1.11,2011-03-18 17:15:00,
2011-03-18 11:24:00,52.3,37.0,30.08,West,270,0.0,1.8,56,0.00,,,0.00,open2300-1.11,2011-03-18 17:24:00,
2011-03-18 11:35:00,52.9,37.1,30.07,West,270,1.8,2.2,55,0.00,,,0.00,open2300-1.11,2011-03-18 17:35:00,
2011-03-18 11:44:00,53.4,36.6,30.07,West,270,0.0,1.8,53,0.00,,,0.00,open2300-1.11,2011-03-18 17:44:00,
2011-03-18 11:54:00,54.3,35.5,30.05,East,90,3.1,5.8,49,0.00,,,0.00,open2300-1.11,2011-03-18 17:54:00,
2011-03-18 12:05:00,55.6,35.5,30.05,ESE,112,4.9,13.6,47,0.00,,,0.00,open2300-1.11,2011-03-18 18:05:00,
2011-03-18 12:15:00,56.8,35.6,30.05,ESE,112,5.6,6.0,45,0.00,,,0.00,open2300-1.11,2011-03-18 18:15:00,
2011-03-18 12:24:00,57.0,35.2,30.05,ESE,112,1.3,7.2,44,0.00,,,0.00,open2300-1.11,2011-03-18 18:24:00,
2011-03-18 12:35:00,56.8,35.0,30.05,East,90,1.1,3.6,44,0.00,,,0.00,open2300-1.11,2011-03-18 18:35:00,
2011-03-18 12:45:00,57.7,37.0,30.04,East,90,6.3,6.3,46,0.00,,,0.00,open2300-1.11,2011-03-18 18:45:00,
2011-03-18 12:55:00,58.8,36.8,30.04,SSE,157,5.4,6.3,44,0.00,,,0.00,open2300-1.11,2011-03-18 18:55:00,
2011-03-18 13:05:00,59.9,37.2,30.04,WSW,247,2.7,7.4,43,0.00,,,0.00,open2300-1.11,2011-03-18 19:05:00,
2011-03-18 13:15:00,60.6,34.0,30.03,WSW,247,6.5,6.5,37,0.00,,,0.00,open2300-1.11,2011-03-18 19:15:00,
2011-03-18 13:24:00,61.5,35.5,30.04,North,0,2.5,6.5,38,0.00,,,0.00,open2300-1.11,2011-03-18 19:24:00,
2011-03-18 13:34:00,61.7,36.4,30.03,West,270,0.0,2.5,39,0.00,,,0.00,open2300-1.11,2011-03-18 19:34:00,
2011-03-18 13:45:00,61.7,33.5,30.02,SSE,157,3.1,3.6,35,0.00,,,0.00,open2300-1.11,2011-03-18 19:45:00,
2011-03-18 13:55:00,62.1,33.1,30.02,WSW,247,4.9,4.9,34,0.00,,,0.00,open2300-1.11,2011-03-18 19:55:00,
2011-03-18 14:05:00,62.4,34.2,30.02,WNW,292,2.7,4.9,35,0.00,,,0.00,open2300-1.11,2011-03-18 20:05:00,
2011-03-18 14:15:00,62.4,33.5,30.02,SW,225,1.6,6.0,34,0.00,,,0.00,open2300-1.11,2011-03-18 20:15:00,
2011-03-18 14:25:00,63.0,33.9,30.01,WNW,292,0.0,1.6,34,0.00,,,0.00,open2300-1.11,2011-03-18 20:25:00,
2011-03-18 14:35:00,63.1,32.7,30.00,NW,315,4.2,4.7,32,0.00,,,0.00,open2300-1.11,2011-03-18 20:35:00,
2011-03-18 14:45:00,63.1,34.1,29.99,North,0,10.7,10.7,34,0.00,,,0.00,open2300-1.11,2011-03-18 20:45:00,
2011-03-18 14:54:00,63.3,33.5,29.99,WSW,247,8.1,10.7,33,0.00,,,0.00,open2300-1.11,2011-03-18 20:54:00,
2011-03-18 15:05:00,63.7,33.2,29.98,South,180,0.0,8.1,32,0.00,,,0.00,open2300-1.11,2011-03-18 21:05:00,
2011-03-18 15:15:00,64.2,35.1,29.99,WSW,247,2.9,5.4,34,0.00,,,0.00,open2300-1.11,2011-03-18 21:15:00,
2011-03-18 15:25:00,65.3,35.3,29.97,WSW,247,3.1,3.6,33,0.00,,,0.00,open2300-1.11,2011-03-18 21:25:00,
2011-03-18 15:34:00,65.3,35.3,29.97,NNW,337,2.2,4.5,33,0.00,,,0.00,open2300-1.11,2011-03-18 21:34:00,
2011-03-18 15:45:00,65.8,35.1,29.97,WNW,292,1.8,4.2,32,0.00,,,0.00,open2300-1.11,2011-03-18 21:45:00,
2011-03-18 15:55:00,66.0,34.5,29.97,WSW,247,5.6,5.6,31,0.00,,,0.00,open2300-1.11,2011-03-18 21:55:00,
2011-03-18 16:04:00,66.0,33.8,29.97,SSE,157,0.0,5.6,30,0.00,,,0.00,open2300-1.11,2011-03-18 22:04:00,
2011-03-18 16:15:00,66.0,33.8,29.96,SE,135,0.0,4.2,30,0.00,,,0.00,open2300-1.11,2011-03-18 22:15:00,
2011-03-18 16:25:00,66.9,33.5,29.96,West,270,2.9,3.1,29,0.00,,,0.00,open2300-1.11,2011-03-18 22:25:00,
2011-03-18 16:27:00,66.9,33.5,29.96,West,270,2.9,3.1,29,0.00,,,0.00,open2300-1.11,2011-03-18 22:27:00,
2011-03-18 16:34:00,66.9,34.6,29.96,SSE,157,3.8,4.5,30,0.00,,,0.00,open2300-1.11,2011-03-18 22:34:00,
2011-03-18 16:44:00,66.0,31.8,29.95,SSW,202,2.9,3.8,28,0.00,,,0.00,open2300-1.11,2011-03-18 22:44:00,
2011-03-18 16:55:00,65.1,32.0,29.95,SE,135,4.7,4.7,29,0.00,,,0.00,open2300-1.11,2011-03-18 22:55:00,
2011-03-18 17:05:00,64.8,31.7,29.95,SE,135,0.0,4.7,29,0.00,,,0.00,open2300-1.11,2011-03-18 23:05:00,
2011-03-18 17:14:00,64.2,31.2,29.95,SE,135,0.0,6.9,29,0.00,,,0.00,open2300-1.11,2011-03-18 23:14:00,
2011-03-18 17:25:00,64.6,31.5,29.94,SSE,157,0.0,4.0,29,0.00,,,0.00,open2300-1.11,2011-03-18 23:25:00,
2011-03-18 17:35:00,65.7,31.5,29.94,SSW,202,0.0,1.3,28,0.00,,,0.00,open2300-1.11,2011-03-18 23:35:00,
2011-03-18 17:45:00,66.0,31.8,29.94,SSE,157,1.3,2.9,28,0.00,,,0.00,open2300-1.11,2011-03-18 23:45:00,
2011-03-18 17:55:00,65.1,30.0,29.94,SSE,157,5.8,5.8,27,0.00,,,0.00,open2300-1.11,2011-03-18 23:55:00,
2011-03-18 18:05:00,64.2,29.2,29.94,South,180,0.0,5.8,27,0.00,,,0.00,open2300-1.11,2011-03-19 00:05:00,
2011-03-18 18:15:00,63.5,28.6,29.94,SE,135,3.8,5.1,27,0.00,,,0.00,open2300-1.11,2011-03-19 00:15:00,
2011-03-18 18:25:00,63.0,27.2,29.93,WSW,247,3.1,3.8,26,0.00,,,0.00,open2300-1.11,2011-03-19 00:25:00,
2011-03-18 18:35:00,62.8,26.0,29.92,South,180,0.0,6.3,25,0.00,,,0.00,open2300-1.11,2011-03-19 00:35:00,
2011-03-18 18:45:00,62.4,24.8,29.92,WSW,247,0.0,3.1,24,0.00,,,0.00,open2300-1.11,2011-03-19 00:45:00,
2011-03-18 18:55:00,61.7,25.1,29.92,NW,315,0.0,2.0,25,0.00,,,0.00,open2300-1.11,2011-03-19 00:55:00,
2011-03-18 19:04:00,61.2,24.7,29.92,WSW,247,0.0,4.2,25,0.00,,,0.00,open2300-1.11,2011-03-19 01:04:00,
2011-03-18 19:15:00,60.4,24.0,29.92,WSW,247,0.0,0.0,25,0.00,,,0.00,open2300-1.11,2011-03-19 01:15:00,
2011-03-18 19:25:00,59.5,23.3,29.92,WSW,247,0.0,0.0,25,0.00,,,0.00,open2300-1.11,2011-03-19 01:25:00,
2011-03-18 19:35:00,58.8,23.6,29.92,WSW,247,0.0,0.0,26,0.00,,,0.00,open2300-1.11,2011-03-19 01:35:00,
2011-03-18 19:45:00,57.9,23.8,29.92,WSW,247,0.0,0.0,27,0.00,,,0.00,open2300-1.11,2011-03-19 01:45:00,
2011-03-18 19:55:00,56.7,24.6,29.92,WSW,247,0.0,0.0,29,0.00,,,0.00,open2300-1.11,2011-03-19 01:55:00,
2011-03-18 20:05:00,55.0,24.1,29.92,WSW,247,0.0,0.0,30,0.00,,,0.00,open2300-1.11,2011-03-19 02:05:00,
2011-03-18 20:15:00,54.0,24.0,29.92,WSW,247,0.0,0.0,31,0.00,,,0.00,open2300-1.11,2011-03-19 02:15:00,
2011-03-18 20:25:00,52.7,23.6,29.91,WSW,247,0.0,0.0,32,0.00,,,0.00,open2300-1.11,2011-03-19 02:25:00,
2011-03-18 20:35:00,52.2,23.8,29.91,WSW,247,0.0,0.0,33,0.00,,,0.00,open2300-1.11,2011-03-19 02:35:00,
2011-03-18 20:45:00,51.4,23.1,29.91,WSW,247,0.0,0.0,33,0.00,,,0.00,open2300-1.11,2011-03-19 02:45:00,
2011-03-18 20:55:00,50.7,23.1,29.91,WSW,247,0.0,0.0,34,0.00,,,0.00,open2300-1.11,2011-03-19 02:55:00,
2011-03-18 21:05:00,49.8,22.3,29.91,East,90,0.0,2.2,34,0.00,,,0.00,open2300-1.11,2011-03-19 03:05:00,
2011-03-18 21:14:00,49.8,23.0,29.91,ESE,112,0.0,3.1,35,0.00,,,0.00,open2300-1.11,2011-03-19 03:14:00,
2011-03-18 21:25:00,50.2,23.3,29.91,SE,135,0.0,1.1,35,0.00,,,0.00,open2300-1.11,2011-03-19 03:25:00,
2011-03-18 21:35:00,49.8,23.7,29.91,WSW,247,0.0,0.0,36,0.00,,,0.00,open2300-1.11,2011-03-19 03:35:00,
2011-03-18 21:45:00,49.6,24.2,29.91,NW,315,0.0,0.0,37,0.00,,,0.00,open2300-1.11,2011-03-19 03:45:00,
2011-03-18 21:55:00,49.1,23.8,29.91,WNW,292,0.0,1.6,37,0.00,,,0.00,open2300-1.11,2011-03-19 03:55:00,
2011-03-18 22:05:00,48.7,24.1,29.91,WNW,292,0.0,0.0,38,0.00,,,0.00,open2300-1.11,2011-03-19 04:05:00,
2011-03-18 22:15:00,48.4,23.8,29.91,West,270,0.0,1.6,38,0.00,,,0.00,open2300-1.11,2011-03-19 04:15:00,
2011-03-18 22:25:00,48.0,23.5,29.91,West,270,0.0,0.0,38,0.00,,,0.00,open2300-1.11,2011-03-19 04:25:00,
2011-03-18 22:35:00,48.0,23.5,29.91,SSE,157,0.0,4.5,38,0.00,,,0.00,open2300-1.11,2011-03-19 04:35:00,
2011-03-18 22:45:00,47.8,23.3,29.91,SSE,157,2.2,2.2,38,0.00,,,0.00,open2300-1.11,2011-03-19 04:45:00,
2011-03-18 22:55:00,48.4,23.8,29.91,WSW,247,2.0,2.7,38,0.00,,,0.00,open2300-1.11,2011-03-19 04:55:00,
2011-03-18 23:05:00,48.7,24.1,29.92,WSW,247,0.0,2.9,38,0.00,,,0.00,open2300-1.11,2011-03-19 05:05:00,
2011-03-18 23:15:00,48.7,24.1,29.91,SSE,157,2.2,2.2,38,0.00,,,0.00,open2300-1.11,2011-03-19 05:15:00,
2011-03-18 23:25:00,49.8,24.4,29.92,SSE,157,0.0,2.2,37,0.00,,,0.00,open2300-1.11,2011-03-19 05:25:00,
2011-03-18 23:35:00,50.7,23.8,29.92,SE,135,0.2,4.7,35,0.00,,,0.00,open2300-1.11,2011-03-19 05:35:00,
2011-03-18 23:45:00,52.5,24.8,29.92,West,270,0.0,3.1,34,0.00,,,0.00,open2300-1.11,2011-03-19 05:45:00,
2011-03-18 23:55:00,52.9,24.4,29.92,WSW,247,1.3,2.5,33,0.00,,,0.00,open2300-1.11,2011-03-19 05:55:00,